sensor_id;sensor_type;location;lat;lon;timestamp;P1;durP1;ratioP1;P2;durP2;ratioP2
53875;SDS011;39789;53.216;5.624;2023-05-10T00:00:11;7.53;;;6.85;;
53875;SDS011;39789;53.216;5.624;2023-05-10T00:02:37;7.60;;;6.90;;
53875;SDS011;39789;53.216;5.624;2023-05-10T00:05:04;9.85;;;6.75;;
53875;SDS011;39789;53.216;5.624;2023-05-10T00:07:30;7.30;;;5.97;;
53875;SDS011;39789;53.216;5.624;2023-05-10T00:09:55;6.13;;;5.50;;
53875;SDS011;39789;53.216;5.624;2023-05-10T00:12:21;5.15;;;4.65;;
53875;SDS011;39789;53.216;5.624;2023-05-10T00:14:47;4.70;;;4.30;;
53875;SDS011;39789;53.216;5.624;2023-05-10T00:17:12;4.43;;;3.90;;
53875;SDS011;39789;53.216;5.624;2023-05-10T00:19:38;4.97;;;4.47;;
53875;SDS011;39789;53.216;5.624;2023-05-10T00:22:03;5.30;;;4.80;;
53875;SDS011;39789;53.216;5.624;2023-05-10T00:24:29;6.88;;;6.28;;
53875;SDS011;39789;53.216;5.624;2023-05-10T00:26:55;7.72;;;7.03;;
53875;SDS011;39789;53.216;5.624;2023-05-10T00:29:20;9.73;;;8.77;;
53875;SDS011;39789;53.216;5.624;2023-05-10T00:31:46;13.93;;;11.65;;
53875;SDS011;39789;53.216;5.624;2023-05-10T00:34:11;18.88;;;13.35;;
53875;SDS011;39789;53.216;5.624;2023-05-10T00:36:37;19.45;;;15.43;;
53875;SDS011;39789;53.216;5.624;2023-05-10T00:39:03;18.25;;;12.95;;
53875;SDS011;39789;53.216;5.624;2023-05-10T00:41:29;24.45;;;13.57;;
53875;SDS011;39789;53.216;5.624;2023-05-10T00:43:57;26.25;;;14.65;;
53875;SDS011;39789;53.216;5.624;2023-05-10T00:46:23;16.38;;;13.82;;
53875;SDS011;39789;53.216;5.624;2023-05-10T00:48:49;16.75;;;13.90;;
53875;SDS011;39789;53.216;5.624;2023-05-10T00:51:15;22.58;;;16.92;;
53875;SDS011;39789;53.216;5.624;2023-05-10T00:53:41;23.85;;;16.08;;
53875;SDS011;39789;53.216;5.624;2023-05-10T00:56:07;40.92;;;14.82;;
53875;SDS011;39789;53.216;5.624;2023-05-10T00:58:33;35.15;;;13.95;;
53875;SDS011;39789;53.216;5.624;2023-05-10T01:00:58;33.80;;;12.82;;
53875;SDS011;39789;53.216;5.624;2023-05-10T01:03:26;29.38;;;12.55;;
53875;SDS011;39789;53.216;5.624;2023-05-10T01:05:52;32.70;;;14.40;;
53875;SDS011;39789;53.216;5.624;2023-05-10T01:08:18;32.47;;;14.73;;
53875;SDS011;39789;53.216;5.624;2023-05-10T01:10:44;23.48;;;12.25;;
53875;SDS011;39789;53.216;5.624;2023-05-10T01:13:10;24.77;;;14.43;;
53875;SDS011;39789;53.216;5.624;2023-05-10T01:15:37;32.38;;;14.13;;
53875;SDS011;39789;53.216;5.624;2023-05-10T01:18:03;27.52;;;15.82;;
53875;SDS011;39789;53.216;5.624;2023-05-10T01:20:32;27.88;;;17.08;;
53875;SDS011;39789;53.216;5.624;2023-05-10T01:23:18;26.80;;;15.52;;
53875;SDS011;39789;53.216;5.624;2023-05-10T01:34:32;15.93;;;14.23;;
53875;SDS011;39789;53.216;5.624;2023-05-10T01:39:28;14.73;;;13.30;;
53875;SDS011;39789;53.216;5.624;2023-05-10T01:42:14;13.27;;;11.97;;
53875;SDS011;39789;53.216;5.624;2023-05-10T01:44:47;13.27;;;12.07;;
53875;SDS011;39789;53.216;5.624;2023-05-10T01:50:02;12.25;;;10.88;;
53875;SDS011;39789;53.216;5.624;2023-05-10T01:52:30;11.27;;;10.13;;
53875;SDS011;39789;53.216;5.624;2023-05-10T01:55:04;10.45;;;9.38;;
53875;SDS011;39789;53.216;5.624;2023-05-10T01:57:35;8.95;;;8.15;;
53875;SDS011;39789;53.216;5.624;2023-05-10T02:00:03;7.68;;;6.97;;
53875;SDS011;39789;53.216;5.624;2023-05-10T02:02:29;5.55;;;5.05;;
53875;SDS011;39789;53.216;5.624;2023-05-10T02:04:58;6.65;;;4.85;;
53875;SDS011;39789;53.216;5.624;2023-05-10T02:07:24;3.38;;;2.80;;
53875;SDS011;39789;53.216;5.624;2023-05-10T02:09:53;4.75;;;2.40;;
53875;SDS011;39789;53.216;5.624;2023-05-10T02:12:19;2.83;;;2.22;;
53875;SDS011;39789;53.216;5.624;2023-05-10T02:14:46;2.83;;;1.60;;
53875;SDS011;39789;53.216;5.624;2023-05-10T02:17:15;1.70;;;1.40;;
53875;SDS011;39789;53.216;5.624;2023-05-10T02:19:42;1.48;;;1.40;;
53875;SDS011;39789;53.216;5.624;2023-05-10T02:22:09;1.95;;;1.85;;
53875;SDS011;39789;53.216;5.624;2023-05-10T02:24:35;2.10;;;2.00;;
53875;SDS011;39789;53.216;5.624;2023-05-10T02:27:02;2.55;;;1.98;;
53875;SDS011;39789;53.216;5.624;2023-05-10T02:29:29;2.05;;;1.88;;
53875;SDS011;39789;53.216;5.624;2023-05-10T02:31:56;1.65;;;1.52;;
53875;SDS011;39789;53.216;5.624;2023-05-10T02:34:24;1.70;;;1.60;;
53875;SDS011;39789;53.216;5.624;2023-05-10T02:36:51;1.60;;;1.50;;
53875;SDS011;39789;53.216;5.624;2023-05-10T02:39:18;2.80;;;1.80;;
53875;SDS011;39789;53.216;5.624;2023-05-10T02:41:45;1.95;;;1.63;;
53875;SDS011;39789;53.216;5.624;2023-05-10T02:44:14;2.17;;;1.63;;
53875;SDS011;39789;53.216;5.624;2023-05-10T02:46:42;1.60;;;1.50;;
53875;SDS011;39789;53.216;5.624;2023-05-10T02:49:08;3.35;;;1.55;;
53875;SDS011;39789;53.216;5.624;2023-05-10T02:51:34;1.52;;;1.42;;
53875;SDS011;39789;53.216;5.624;2023-05-10T02:54:03;1.50;;;1.40;;
53875;SDS011;39789;53.216;5.624;2023-05-10T02:56:35;1.40;;;1.30;;
53875;SDS011;39789;53.216;5.624;2023-05-10T02:59:04;1.55;;;1.45;;
53875;SDS011;39789;53.216;5.624;2023-05-10T03:01:30;2.30;;;1.52;;
53875;SDS011;39789;53.216;5.624;2023-05-10T03:03:55;1.50;;;1.40;;
53875;SDS011;39789;53.216;5.624;2023-05-10T03:06:21;1.40;;;1.30;;
53875;SDS011;39789;53.216;5.624;2023-05-10T03:08:46;1.98;;;1.70;;
53875;SDS011;39789;53.216;5.624;2023-05-10T03:11:23;1.25;;;1.25;;
53875;SDS011;39789;53.216;5.624;2023-05-10T03:14:04;1.42;;;1.38;;
53875;SDS011;39789;53.216;5.624;2023-05-10T03:16:45;1.30;;;1.30;;
53875;SDS011;39789;53.216;5.624;2023-05-10T03:21:52;1.60;;;1.50;;
53875;SDS011;39789;53.216;5.624;2023-05-10T03:24:23;1.88;;;1.77;;
53875;SDS011;39789;53.216;5.624;2023-05-10T03:26:53;3.75;;;2.20;;
53875;SDS011;39789;53.216;5.624;2023-05-10T03:29:21;2.30;;;2.10;;
53875;SDS011;39789;53.216;5.624;2023-05-10T03:31:47;2.40;;;2.20;;
53875;SDS011;39789;53.216;5.624;2023-05-10T03:34:13;2.00;;;1.90;;
53875;SDS011;39789;53.216;5.624;2023-05-10T03:36:39;2.58;;;2.38;;
53875;SDS011;39789;53.216;5.624;2023-05-10T03:39:04;3.42;;;3.13;;
53875;SDS011;39789;53.216;5.624;2023-05-10T03:41:30;4.15;;;3.65;;
53875;SDS011;39789;53.216;5.624;2023-05-10T03:43:56;5.55;;;3.47;;
53875;SDS011;39789;53.216;5.624;2023-05-10T03:46:21;3.53;;;2.58;;
53875;SDS011;39789;53.216;5.624;2023-05-10T03:48:47;3.80;;;3.38;;
53875;SDS011;39789;53.216;5.624;2023-05-10T03:51:12;4.30;;;3.42;;
53875;SDS011;39789;53.216;5.624;2023-05-10T03:53:38;3.58;;;3.28;;
53875;SDS011;39789;53.216;5.624;2023-05-10T03:56:03;4.40;;;3.42;;
53875;SDS011;39789;53.216;5.624;2023-05-10T03:58:29;3.70;;;3.30;;
53875;SDS011;39789;53.216;5.624;2023-05-10T04:00:55;3.72;;;3.40;;
53875;SDS011;39789;53.216;5.624;2023-05-10T04:03:20;5.57;;;3.80;;
53875;SDS011;39789;53.216;5.624;2023-05-10T04:05:46;4.85;;;4.35;;
53875;SDS011;39789;53.216;5.624;2023-05-10T04:08:12;5.85;;;5.03;;
53875;SDS011;39789;53.216;5.624;2023-05-10T04:10:37;6.30;;;4.80;;
53875;SDS011;39789;53.216;5.624;2023-05-10T04:13:03;4.97;;;4.47;;
53875;SDS011;39789;53.216;5.624;2023-05-10T04:15:29;7.03;;;5.22;;
53875;SDS011;39789;53.216;5.624;2023-05-10T04:17:54;5.68;;;5.05;;
53875;SDS011;39789;53.216;5.624;2023-05-10T04:20:20;6.85;;;5.05;;
53875;SDS011;39789;53.216;5.624;2023-05-10T04:22:45;5.97;;;5.10;;
53875;SDS011;39789;53.216;5.624;2023-05-10T04:25:11;5.80;;;4.95;;
53875;SDS011;39789;53.216;5.624;2023-05-10T04:27:37;7.53;;;5.22;;
53875;SDS011;39789;53.216;5.624;2023-05-10T04:30:02;4.38;;;3.90;;
53875;SDS011;39789;53.216;5.624;2023-05-10T04:32:28;7.32;;;3.88;;
53875;SDS011;39789;53.216;5.624;2023-05-10T04:34:54;4.38;;;3.42;;
53875;SDS011;39789;53.216;5.624;2023-05-10T04:37:19;4.75;;;3.08;;
53875;SDS011;39789;53.216;5.624;2023-05-10T04:39:46;4.28;;;3.38;;
53875;SDS011;39789;53.216;5.624;2023-05-10T04:42:12;7.07;;;4.50;;
53875;SDS011;39789;53.216;5.624;2023-05-10T04:44:39;8.38;;;5.75;;
53875;SDS011;39789;53.216;5.624;2023-05-10T04:47:05;8.52;;;6.72;;
53875;SDS011;39789;53.216;5.624;2023-05-10T04:49:31;8.02;;;6.13;;
53875;SDS011;39789;53.216;5.624;2023-05-10T04:51:57;8.88;;;5.47;;
53875;SDS011;39789;53.216;5.624;2023-05-10T04:54:22;7.60;;;4.50;;
53875;SDS011;39789;53.216;5.624;2023-05-10T04:56:48;6.07;;;4.10;;
53875;SDS011;39789;53.216;5.624;2023-05-10T04:59:14;7.07;;;4.25;;
53875;SDS011;39789;53.216;5.624;2023-05-10T05:01:39;7.43;;;4.60;;
53875;SDS011;39789;53.216;5.624;2023-05-10T05:04:05;6.53;;;4.53;;
53875;SDS011;39789;53.216;5.624;2023-05-10T05:06:31;8.13;;;5.32;;
53875;SDS011;39789;53.216;5.624;2023-05-10T05:08:57;8.57;;;5.00;;
53875;SDS011;39789;53.216;5.624;2023-05-10T05:11:22;8.25;;;4.53;;
53875;SDS011;39789;53.216;5.624;2023-05-10T05:13:48;6.03;;;3.72;;
53875;SDS011;39789;53.216;5.624;2023-05-10T05:16:14;4.97;;;4.00;;
53875;SDS011;39789;53.216;5.624;2023-05-10T05:18:40;6.00;;;4.47;;
53875;SDS011;39789;53.216;5.624;2023-05-10T05:21:18;6.10;;;4.85;;
53875;SDS011;39789;53.216;5.624;2023-05-10T05:23:44;6.35;;;4.78;;
53875;SDS011;39789;53.216;5.624;2023-05-10T05:26:10;7.05;;;4.97;;
53875;SDS011;39789;53.216;5.624;2023-05-10T05:28:36;6.47;;;4.35;;
53875;SDS011;39789;53.216;5.624;2023-05-10T05:31:06;5.30;;;4.22;;
53875;SDS011;39789;53.216;5.624;2023-05-10T05:33:32;4.78;;;4.28;;
53875;SDS011;39789;53.216;5.624;2023-05-10T05:36:04;4.72;;;4.10;;
53875;SDS011;39789;53.216;5.624;2023-05-10T05:38:30;3.45;;;3.03;;
53875;SDS011;39789;53.216;5.624;2023-05-10T05:40:55;5.82;;;4.18;;
53875;SDS011;39789;53.216;5.624;2023-05-10T05:43:21;6.03;;;4.18;;
53875;SDS011;39789;53.216;5.624;2023-05-10T05:45:47;4.75;;;4.00;;
53875;SDS011;39789;53.216;5.624;2023-05-10T05:48:12;5.82;;;4.90;;
53875;SDS011;39789;53.216;5.624;2023-05-10T05:50:38;10.88;;;6.70;;
53875;SDS011;39789;53.216;5.624;2023-05-10T05:53:03;8.88;;;7.10;;
53875;SDS011;39789;53.216;5.624;2023-05-10T05:55:29;9.10;;;6.13;;
53875;SDS011;39789;53.216;5.624;2023-05-10T05:57:56;7.72;;;6.38;;
53875;SDS011;39789;53.216;5.624;2023-05-10T06:00:22;8.00;;;7.18;;
53875;SDS011;39789;53.216;5.624;2023-05-10T06:02:48;9.23;;;6.25;;
53875;SDS011;39789;53.216;5.624;2023-05-10T06:05:13;7.43;;;5.35;;
53875;SDS011;39789;53.216;5.624;2023-05-10T06:07:40;6.85;;;5.75;;
53875;SDS011;39789;53.216;5.624;2023-05-10T06:10:08;7.43;;;4.80;;
53875;SDS011;39789;53.216;5.624;2023-05-10T06:12:34;6.05;;;4.53;;
53875;SDS011;39789;53.216;5.624;2023-05-10T06:15:00;9.02;;;5.15;;
53875;SDS011;39789;53.216;5.624;2023-05-10T06:17:26;6.72;;;4.90;;
53875;SDS011;39789;53.216;5.624;2023-05-10T06:19:52;6.63;;;5.28;;
53875;SDS011;39789;53.216;5.624;2023-05-10T06:22:18;7.10;;;5.40;;
53875;SDS011;39789;53.216;5.624;2023-05-10T06:24:43;6.63;;;4.97;;
53875;SDS011;39789;53.216;5.624;2023-05-10T06:27:09;8.40;;;4.40;;
53875;SDS011;39789;53.216;5.624;2023-05-10T06:29:35;7.32;;;4.85;;
53875;SDS011;39789;53.216;5.624;2023-05-10T06:32:00;8.65;;;4.50;;
53875;SDS011;39789;53.216;5.624;2023-05-10T06:34:26;7.90;;;4.82;;
53875;SDS011;39789;53.216;5.624;2023-05-10T06:36:51;5.15;;;3.97;;
53875;SDS011;39789;53.216;5.624;2023-05-10T06:39:17;5.68;;;3.75;;
53875;SDS011;39789;53.216;5.624;2023-05-10T06:41:43;6.95;;;4.05;;
53875;SDS011;39789;53.216;5.624;2023-05-10T06:44:09;4.72;;;3.60;;
53875;SDS011;39789;53.216;5.624;2023-05-10T06:46:34;7.35;;;4.03;;
53875;SDS011;39789;53.216;5.624;2023-05-10T06:49:00;5.22;;;3.90;;
53875;SDS011;39789;53.216;5.624;2023-05-10T06:51:25;5.38;;;4.10;;
53875;SDS011;39789;53.216;5.624;2023-05-10T06:53:51;7.57;;;4.32;;
53875;SDS011;39789;53.216;5.624;2023-05-10T06:56:16;5.30;;;3.67;;
53875;SDS011;39789;53.216;5.624;2023-05-10T06:58:42;5.85;;;3.75;;
53875;SDS011;39789;53.216;5.624;2023-05-10T07:01:08;5.05;;;4.05;;
53875;SDS011;39789;53.216;5.624;2023-05-10T07:03:33;8.13;;;4.65;;
53875;SDS011;39789;53.216;5.624;2023-05-10T07:06:02;6.50;;;5.25;;
53875;SDS011;39789;53.216;5.624;2023-05-10T07:08:29;8.15;;;5.82;;
53875;SDS011;39789;53.216;5.624;2023-05-10T07:11:05;7.53;;;5.22;;
53875;SDS011;39789;53.216;5.624;2023-05-10T07:13:35;7.00;;;4.90;;
53875;SDS011;39789;53.216;5.624;2023-05-10T07:16:01;6.63;;;5.30;;
53875;SDS011;39789;53.216;5.624;2023-05-10T07:18:27;6.70;;;5.57;;
53875;SDS011;39789;53.216;5.624;2023-05-10T07:20:53;9.60;;;5.95;;
53875;SDS011;39789;53.216;5.624;2023-05-10T07:23:18;9.38;;;6.13;;
53875;SDS011;39789;53.216;5.624;2023-05-10T07:25:45;7.20;;;5.47;;
53875;SDS011;39789;53.216;5.624;2023-05-10T07:28:11;8.32;;;5.25;;
53875;SDS011;39789;53.216;5.624;2023-05-10T07:30:37;7.22;;;4.30;;
53875;SDS011;39789;53.216;5.624;2023-05-10T07:33:06;6.00;;;4.13;;
53875;SDS011;39789;53.216;5.624;2023-05-10T07:35:33;6.15;;;4.82;;
53875;SDS011;39789;53.216;5.624;2023-05-10T07:37:58;7.30;;;4.50;;
53875;SDS011;39789;53.216;5.624;2023-05-10T07:40:24;8.35;;;4.07;;
53875;SDS011;39789;53.216;5.624;2023-05-10T07:42:50;7.93;;;4.72;;
53875;SDS011;39789;53.216;5.624;2023-05-10T07:45:16;6.38;;;4.00;;
53875;SDS011;39789;53.216;5.624;2023-05-10T07:47:42;5.35;;;3.70;;
53875;SDS011;39789;53.216;5.624;2023-05-10T07:50:08;4.82;;;3.75;;
53875;SDS011;39789;53.216;5.624;2023-05-10T07:52:34;6.63;;;3.88;;
53875;SDS011;39789;53.216;5.624;2023-05-10T07:54:59;6.57;;;4.40;;
53875;SDS011;39789;53.216;5.624;2023-05-10T07:57:25;6.45;;;4.20;;
53875;SDS011;39789;53.216;5.624;2023-05-10T07:59:51;9.32;;;4.57;;
53875;SDS011;39789;53.216;5.624;2023-05-10T08:02:16;7.18;;;4.72;;
53875;SDS011;39789;53.216;5.624;2023-05-10T08:04:42;7.28;;;5.22;;
53875;SDS011;39789;53.216;5.624;2023-05-10T08:07:07;8.90;;;5.55;;
53875;SDS011;39789;53.216;5.624;2023-05-10T08:09:33;10.70;;;6.35;;
53875;SDS011;39789;53.216;5.624;2023-05-10T08:11:58;9.88;;;6.35;;
53875;SDS011;39789;53.216;5.624;2023-05-10T08:14:25;7.43;;;6.13;;
53875;SDS011;39789;53.216;5.624;2023-05-10T08:16:51;8.45;;;6.75;;
53875;SDS011;39789;53.216;5.624;2023-05-10T08:19:17;10.77;;;7.25;;
53875;SDS011;39789;53.216;5.624;2023-05-10T08:21:45;9.15;;;7.60;;
53875;SDS011;39789;53.216;5.624;2023-05-10T08:24:10;9.82;;;8.40;;
53875;SDS011;39789;53.216;5.624;2023-05-10T08:26:36;10.50;;;7.88;;
53875;SDS011;39789;53.216;5.624;2023-05-10T08:29:02;8.25;;;6.90;;
53875;SDS011;39789;53.216;5.624;2023-05-10T08:31:27;8.63;;;6.38;;
53875;SDS011;39789;53.216;5.624;2023-05-10T08:33:53;8.18;;;6.45;;
53875;SDS011;39789;53.216;5.624;2023-05-10T08:36:19;10.27;;;6.10;;
53875;SDS011;39789;53.216;5.624;2023-05-10T08:38:47;8.38;;;6.28;;
53875;SDS011;39789;53.216;5.624;2023-05-10T08:41:15;9.00;;;6.10;;
53875;SDS011;39789;53.216;5.624;2023-05-10T08:43:41;8.50;;;5.97;;
53875;SDS011;39789;53.216;5.624;2023-05-10T08:46:11;7.45;;;5.90;;
53875;SDS011;39789;53.216;5.624;2023-05-10T08:48:42;7.47;;;6.07;;
53875;SDS011;39789;53.216;5.624;2023-05-10T08:51:09;9.63;;;6.05;;
53875;SDS011;39789;53.216;5.624;2023-05-10T08:53:40;6.43;;;5.25;;
53875;SDS011;39789;53.216;5.624;2023-05-10T08:56:06;8.40;;;5.85;;
53875;SDS011;39789;53.216;5.624;2023-05-10T08:58:32;7.93;;;6.28;;
53875;SDS011;39789;53.216;5.624;2023-05-10T09:00:58;9.00;;;6.30;;
53875;SDS011;39789;53.216;5.624;2023-05-10T09:03:25;8.02;;;6.00;;
53875;SDS011;39789;53.216;5.624;2023-05-10T09:05:51;11.10;;;6.90;;
53875;SDS011;39789;53.216;5.624;2023-05-10T09:08:17;9.63;;;7.75;;
53875;SDS011;39789;53.216;5.624;2023-05-10T09:10:43;7.78;;;5.68;;
53875;SDS011;39789;53.216;5.624;2023-05-10T09:13:12;9.20;;;7.00;;
53875;SDS011;39789;53.216;5.624;2023-05-10T09:15:39;9.38;;;6.40;;
53875;SDS011;39789;53.216;5.624;2023-05-10T09:18:04;7.05;;;6.07;;
53875;SDS011;39789;53.216;5.624;2023-05-10T09:20:30;7.55;;;5.78;;
53875;SDS011;39789;53.216;5.624;2023-05-10T09:22:56;10.38;;;7.13;;
53875;SDS011;39789;53.216;5.624;2023-05-10T09:25:21;9.75;;;6.80;;
53875;SDS011;39789;53.216;5.624;2023-05-10T09:27:47;11.65;;;7.18;;
53875;SDS011;39789;53.216;5.624;2023-05-10T09:30:17;10.13;;;7.07;;
53875;SDS011;39789;53.216;5.624;2023-05-10T09:32:52;11.32;;;8.13;;
53875;SDS011;39789;53.216;5.624;2023-05-10T09:35:22;9.35;;;7.95;;
53875;SDS011;39789;53.216;5.624;2023-05-10T09:37:51;10.68;;;7.93;;
53875;SDS011;39789;53.216;5.624;2023-05-10T09:40:20;10.80;;;8.05;;
53875;SDS011;39789;53.216;5.624;2023-05-10T09:42:59;10.13;;;7.95;;
53875;SDS011;39789;53.216;5.624;2023-05-10T09:45:27;11.38;;;8.23;;
53875;SDS011;39789;53.216;5.624;2023-05-10T09:47:54;10.48;;;8.75;;
53875;SDS011;39789;53.216;5.624;2023-05-10T09:50:20;11.10;;;8.13;;
53875;SDS011;39789;53.216;5.624;2023-05-10T09:52:47;10.18;;;7.63;;
53875;SDS011;39789;53.216;5.624;2023-05-10T09:55:13;11.65;;;7.50;;
53875;SDS011;39789;53.216;5.624;2023-05-10T09:57:39;8.10;;;6.82;;
53875;SDS011;39789;53.216;5.624;2023-05-10T10:00:06;12.48;;;8.63;;
53875;SDS011;39789;53.216;5.624;2023-05-10T10:02:32;9.75;;;7.35;;
53875;SDS011;39789;53.216;5.624;2023-05-10T10:05:00;11.45;;;8.93;;
53875;SDS011;39789;53.216;5.624;2023-05-10T10:07:27;11.20;;;8.75;;
53875;SDS011;39789;53.216;5.624;2023-05-10T10:09:53;10.82;;;9.23;;
53875;SDS011;39789;53.216;5.624;2023-05-10T10:12:18;13.43;;;9.93;;
53875;SDS011;39789;53.216;5.624;2023-05-10T10:14:48;10.43;;;8.88;;
53875;SDS011;39789;53.216;5.624;2023-05-10T10:17:15;9.45;;;8.07;;
53875;SDS011;39789;53.216;5.624;2023-05-10T10:19:41;10.15;;;8.20;;
53875;SDS011;39789;53.216;5.624;2023-05-10T10:22:07;7.97;;;6.57;;
53875;SDS011;39789;53.216;5.624;2023-05-10T10:24:32;9.82;;;6.80;;
53875;SDS011;39789;53.216;5.624;2023-05-10T10:27:01;7.13;;;5.95;;
53875;SDS011;39789;53.216;5.624;2023-05-10T10:29:47;9.50;;;5.68;;
53875;SDS011;39789;53.216;5.624;2023-05-10T10:32:30;6.85;;;6.15;;
53875;SDS011;39789;53.216;5.624;2023-05-10T10:35:17;7.82;;;6.22;;
53875;SDS011;39789;53.216;5.624;2023-05-10T10:37:47;7.97;;;6.43;;
53875;SDS011;39789;53.216;5.624;2023-05-10T10:42:54;11.73;;;8.40;;
53875;SDS011;39789;53.216;5.624;2023-05-10T10:45:21;10.57;;;7.45;;
53875;SDS011;39789;53.216;5.624;2023-05-10T10:47:48;9.10;;;6.90;;
53875;SDS011;39789;53.216;5.624;2023-05-10T10:50:14;9.05;;;7.35;;
53875;SDS011;39789;53.216;5.624;2023-05-10T10:52:44;8.32;;;7.13;;
53875;SDS011;39789;53.216;5.624;2023-05-10T10:55:14;8.85;;;6.60;;
53875;SDS011;39789;53.216;5.624;2023-05-10T10:57:45;8.43;;;7.03;;
53875;SDS011;39789;53.216;5.624;2023-05-10T11:05:46;8.20;;;5.55;;
53875;SDS011;39789;53.216;5.624;2023-05-10T11:13:27;9.20;;;7.55;;
53875;SDS011;39789;53.216;5.624;2023-05-10T11:15:54;8.13;;;7.07;;
53875;SDS011;39789;53.216;5.624;2023-05-10T11:18:28;7.05;;;6.07;;
53875;SDS011;39789;53.216;5.624;2023-05-10T11:20:59;9.23;;;7.13;;
53875;SDS011;39789;53.216;5.624;2023-05-10T11:23:33;12.23;;;9.05;;
53875;SDS011;39789;53.216;5.624;2023-05-10T11:26:12;12.18;;;9.30;;
53875;SDS011;39789;53.216;5.624;2023-05-10T11:28:42;11.05;;;8.95;;
53875;SDS011;39789;53.216;5.624;2023-05-10T11:31:08;11.38;;;8.82;;
53875;SDS011;39789;53.216;5.624;2023-05-10T11:33:48;12.88;;;10.05;;
53875;SDS011;39789;53.216;5.624;2023-05-10T11:36:16;13.15;;;10.43;;
53875;SDS011;39789;53.216;5.624;2023-05-10T11:38:53;13.57;;;9.55;;
53875;SDS011;39789;53.216;5.624;2023-05-10T11:41:19;13.95;;;9.45;;
53875;SDS011;39789;53.216;5.624;2023-05-10T11:43:52;11.75;;;9.43;;
53875;SDS011;39789;53.216;5.624;2023-05-10T11:46:22;13.07;;;9.25;;
53875;SDS011;39789;53.216;5.624;2023-05-10T11:48:49;12.27;;;9.80;;
53875;SDS011;39789;53.216;5.624;2023-05-10T11:51:19;14.68;;;9.88;;
53875;SDS011;39789;53.216;5.624;2023-05-10T11:53:46;10.88;;;8.27;;
53875;SDS011;39789;53.216;5.624;2023-05-10T11:56:13;11.43;;;8.95;;
53875;SDS011;39789;53.216;5.624;2023-05-10T11:58:39;10.68;;;8.98;;
53875;SDS011;39789;53.216;5.624;2023-05-10T12:01:05;10.05;;;8.45;;
53875;SDS011;39789;53.216;5.624;2023-05-10T12:03:32;9.98;;;8.25;;
53875;SDS011;39789;53.216;5.624;2023-05-10T12:05:59;12.27;;;8.13;;
53875;SDS011;39789;53.216;5.624;2023-05-10T12:08:26;9.70;;;7.13;;
53875;SDS011;39789;53.216;5.624;2023-05-10T12:11:03;10.43;;;8.23;;
53875;SDS011;39789;53.216;5.624;2023-05-10T12:13:30;12.85;;;8.90;;
53875;SDS011;39789;53.216;5.624;2023-05-10T12:15:59;15.18;;;9.77;;
53875;SDS011;39789;53.216;5.624;2023-05-10T12:18:38;14.43;;;10.40;;
53875;SDS011;39789;53.216;5.624;2023-05-10T12:21:05;15.38;;;10.60;;
53875;SDS011;39789;53.216;5.624;2023-05-10T12:23:30;15.30;;;11.23;;
53875;SDS011;39789;53.216;5.624;2023-05-10T12:26:01;14.75;;;11.70;;
53875;SDS011;39789;53.216;5.624;2023-05-10T12:28:29;17.65;;;11.63;;
53875;SDS011;39789;53.216;5.624;2023-05-10T12:30:56;14.70;;;11.75;;
53875;SDS011;39789;53.216;5.624;2023-05-10T12:33:22;16.30;;;11.63;;
53875;SDS011;39789;53.216;5.624;2023-05-10T12:35:49;19.48;;;12.57;;
53875;SDS011;39789;53.216;5.624;2023-05-10T12:38:26;19.80;;;13.00;;
53875;SDS011;39789;53.216;5.624;2023-05-10T12:41:11;17.90;;;12.20;;
53875;SDS011;39789;53.216;5.624;2023-05-10T12:43:38;17.42;;;12.25;;
53875;SDS011;39789;53.216;5.624;2023-05-10T12:46:05;15.25;;;11.80;;
53875;SDS011;39789;53.216;5.624;2023-05-10T12:48:31;16.30;;;13.07;;
53875;SDS011;39789;53.216;5.624;2023-05-10T12:50:58;18.25;;;13.00;;
53875;SDS011;39789;53.216;5.624;2023-05-10T12:53:24;17.42;;;12.82;;
53875;SDS011;39789;53.216;5.624;2023-05-10T12:55:50;16.02;;;12.55;;
53875;SDS011;39789;53.216;5.624;2023-05-10T12:58:16;16.63;;;12.93;;
53875;SDS011;39789;53.216;5.624;2023-05-10T13:00:42;14.77;;;11.30;;
53875;SDS011;39789;53.216;5.624;2023-05-10T13:03:08;14.60;;;11.43;;
53875;SDS011;39789;53.216;5.624;2023-05-10T13:05:34;15.88;;;11.50;;
53875;SDS011;39789;53.216;5.624;2023-05-10T13:08:01;13.15;;;10.27;;
53875;SDS011;39789;53.216;5.624;2023-05-10T13:10:27;10.45;;;9.13;;
53875;SDS011;39789;53.216;5.624;2023-05-10T13:12:57;10.18;;;8.70;;
53875;SDS011;39789;53.216;5.624;2023-05-10T13:15:25;11.85;;;8.38;;
53875;SDS011;39789;53.216;5.624;2023-05-10T13:17:53;6.93;;;6.22;;
53875;SDS011;39789;53.216;5.624;2023-05-10T13:20:19;8.80;;;7.88;;
53875;SDS011;39789;53.216;5.624;2023-05-10T13:22:45;7.10;;;6.38;;
53875;SDS011;39789;53.216;5.624;2023-05-10T13:25:11;7.88;;;6.10;;
53875;SDS011;39789;53.216;5.624;2023-05-10T13:27:37;7.88;;;7.07;;
53875;SDS011;39789;53.216;5.624;2023-05-10T13:30:06;7.78;;;6.88;;
53875;SDS011;39789;53.216;5.624;2023-05-10T13:32:33;8.38;;;6.65;;
53875;SDS011;39789;53.216;5.624;2023-05-10T13:34:59;7.65;;;6.85;;
53875;SDS011;39789;53.216;5.624;2023-05-10T13:37:25;7.78;;;6.97;;
53875;SDS011;39789;53.216;5.624;2023-05-10T13:39:50;8.80;;;7.68;;
53875;SDS011;39789;53.216;5.624;2023-05-10T13:42:17;8.02;;;6.07;;
53875;SDS011;39789;53.216;5.624;2023-05-10T13:44:43;7.43;;;6.63;;
53875;SDS011;39789;53.216;5.624;2023-05-10T13:47:08;7.93;;;6.30;;
53875;SDS011;39789;53.216;5.624;2023-05-10T13:49:35;6.95;;;6.25;;
53875;SDS011;39789;53.216;5.624;2023-05-10T13:52:00;6.25;;;5.65;;
53875;SDS011;39789;53.216;5.624;2023-05-10T13:54:31;6.72;;;5.82;;
53875;SDS011;39789;53.216;5.624;2023-05-10T13:57:06;6.93;;;6.22;;
53875;SDS011;39789;53.216;5.624;2023-05-10T13:59:32;7.70;;;7.00;;
53875;SDS011;39789;53.216;5.624;2023-05-10T14:01:58;6.75;;;6.15;;
53875;SDS011;39789;53.216;5.624;2023-05-10T14:04:24;7.80;;;6.47;;
53875;SDS011;39789;53.216;5.624;2023-05-10T14:06:50;8.43;;;6.55;;
53875;SDS011;39789;53.216;5.624;2023-05-10T14:09:17;8.80;;;6.63;;
53875;SDS011;39789;53.216;5.624;2023-05-10T14:11:43;7.60;;;6.90;;
53875;SDS011;39789;53.216;5.624;2023-05-10T14:14:09;8.18;;;7.38;;
53875;SDS011;39789;53.216;5.624;2023-05-10T14:16:35;9.60;;;8.00;;
53875;SDS011;39789;53.216;5.624;2023-05-10T14:19:01;8.25;;;6.90;;
53875;SDS011;39789;53.216;5.624;2023-05-10T14:21:26;7.75;;;6.95;;
53875;SDS011;39789;53.216;5.624;2023-05-10T14:23:54;8.73;;;7.72;;
53875;SDS011;39789;53.216;5.624;2023-05-10T14:26:20;9.32;;;7.90;;
53875;SDS011;39789;53.216;5.624;2023-05-10T14:28:46;8.25;;;7.40;;
53875;SDS011;39789;53.216;5.624;2023-05-10T14:31:12;8.80;;;7.90;;
53875;SDS011;39789;53.216;5.624;2023-05-10T14:33:37;8.90;;;7.82;;
53875;SDS011;39789;53.216;5.624;2023-05-10T14:36:03;10.32;;;8.50;;
53875;SDS011;39789;53.216;5.624;2023-05-10T14:38:29;8.85;;;7.95;;
53875;SDS011;39789;53.216;5.624;2023-05-10T14:40:54;9.93;;;8.77;;
53875;SDS011;39789;53.216;5.624;2023-05-10T14:43:20;10.07;;;7.93;;
53875;SDS011;39789;53.216;5.624;2023-05-10T14:45:46;10.45;;;8.13;;
53875;SDS011;39789;53.216;5.624;2023-05-10T14:48:12;9.75;;;7.70;;
53875;SDS011;39789;53.216;5.624;2023-05-10T14:50:40;10.98;;;8.38;;
53875;SDS011;39789;53.216;5.624;2023-05-10T14:53:06;10.35;;;8.93;;
53875;SDS011;39789;53.216;5.624;2023-05-10T14:55:31;8.55;;;7.47;;
53875;SDS011;39789;53.216;5.624;2023-05-10T14:57:57;11.35;;;7.88;;
53875;SDS011;39789;53.216;5.624;2023-05-10T15:00:23;11.70;;;8.73;;
53875;SDS011;39789;53.216;5.624;2023-05-10T15:02:49;12.32;;;9.02;;
53875;SDS011;39789;53.216;5.624;2023-05-10T15:05:14;12.80;;;9.32;;
53875;SDS011;39789;53.216;5.624;2023-05-10T15:07:40;9.93;;;8.93;;
53875;SDS011;39789;53.216;5.624;2023-05-10T15:10:08;10.93;;;9.40;;